sensor_id;sensor_type;location;lat;lon;timestamp;pressure;altitude;pressure_sealevel;temperature;humidity
61037;BME280;72210;47.076;15.430;2023-09-18T00:00:14;97349.63;;;17.34;100.00
61037;BME280;72210;47.076;15.430;2023-09-18T00:02:41;97352.50;;;17.31;100.00
61037;BME280;72210;47.076;15.430;2023-09-18T00:05:08;97355.28;;;17.30;100.00
61037;BME280;72210;47.076;15.430;2023-09-18T00:07:35;97347.66;;;17.27;100.00
61037;BME280;72210;47.076;15.430;2023-09-18T00:10:02;97349.47;;;17.26;100.00
61037;BME280;72210;47.076;15.430;2023-09-18T00:12:31;97337.94;;;17.27;100.00
61037;BME280;72210;47.076;15.430;2023-09-18T00:14:58;97346.09;;;17.24;100.00
61037;BME280;72210;47.076;15.430;2023-09-18T00:17:25;97330.59;;;17.21;100.00
61037;BME280;72210;47.076;15.430;2023-09-18T00:19:52;97337.94;;;17.17;100.00
61037;BME280;72210;47.076;15.430;2023-09-18T00:22:19;97335.56;;;17.14;100.00
61037;BME280;72210;47.076;15.430;2023-09-18T00:24:47;97347.75;;;17.15;100.00
61037;BME280;72210;47.076;15.430;2023-09-18T00:27:14;97347.03;;;17.13;100.00
61037;BME280;72210;47.076;15.430;2023-09-18T00:29:42;97343.19;;;17.17;100.00
61037;BME280;72210;47.076;15.430;2023-09-18T00:32:09;97326.97;;;17.12;100.00
61037;BME280;72210;47.076;15.430;2023-09-18T00:34:36;97334.59;;;17.15;100.00
61037;BME280;72210;47.076;15.430;2023-09-18T00:37:03;97329.88;;;17.09;100.00
61037;BME280;72210;47.076;15.430;2023-09-18T00:39:31;97330.28;;;17.04;100.00
61037;BME280;72210;47.076;15.430;2023-09-18T00:41:58;97320.72;;;17.03;100.00
61037;BME280;72210;47.076;15.430;2023-09-18T00:44:25;97320.72;;;17.03;100.00
61037;BME280;72210;47.076;15.430;2023-09-18T00:46:53;97314.63;;;17.03;100.00
61037;BME280;72210;47.076;15.430;2023-09-18T00:49:21;97320.16;;;17.00;100.00
61037;BME280;72210;47.076;15.430;2023-09-18T00:51:49;97324.75;;;17.08;100.00
61037;BME280;72210;47.076;15.430;2023-09-18T00:54:18;97320.44;;;17.07;100.00
61037;BME280;72210;47.076;15.430;2023-09-18T00:56:46;97322.78;;;17.00;100.00
61037;BME280;72210;47.076;15.430;2023-09-18T00:59:14;97317.66;;;16.98;100.00
61037;BME280;72210;47.076;15.430;2023-09-18T01:01:42;97322.91;;;16.98;100.00
61037;BME280;72210;47.076;15.430;2023-09-18T01:04:12;97320.53;;;16.95;100.00
61037;BME280;72210;47.076;15.430;2023-09-18T01:06:39;97311.94;;;16.93;100.00
61037;BME280;72210;47.076;15.430;2023-09-18T01:09:06;97308.06;;;16.88;100.00
61037;BME280;72210;47.076;15.430;2023-09-18T01:11:38;97301.81;;;16.89;100.00
61037;BME280;72210;47.076;15.430;2023-09-18T01:14:14;97300.31;;;16.86;100.00
61037;BME280;72210;47.076;15.430;2023-09-18T01:16:49;97296.69;;;16.87;100.00
61037;BME280;72210;47.076;15.430;2023-09-18T01:19:35;97300.41;;;16.84;100.00
61037;BME280;72210;47.076;15.430;2023-09-18T01:22:03;97300.22;;;16.76;100.00
61037;BME280;72210;47.076;15.430;2023-09-18T01:24:32;97289.69;;;16.76;100.00
61037;BME280;72210;47.076;15.430;2023-09-18T01:26:59;97291.88;;;16.71;100.00
61037;BME280;72210;47.076;15.430;2023-09-18T01:29:26;97294.66;;;16.69;100.00
61037;BME280;72210;47.076;15.430;2023-09-18T01:31:54;97296.06;;;16.74;100.00
61037;BME280;72210;47.076;15.430;2023-09-18T01:34:22;97306.13;;;16.68;100.00
61037;BME280;72210;47.076;15.430;2023-09-18T01:36:53;97298.09;;;16.70;100.00
61037;BME280;72210;47.076;15.430;2023-09-18T01:39:20;97299.09;;;16.69;100.00
61037;BME280;72210;47.076;15.430;2023-09-18T01:41:49;97297.41;;;16.68;100.00
61037;BME280;72210;47.076;15.430;2023-09-18T01:44:17;97293.25;;;16.65;100.00
61037;BME280;72210;47.076;15.430;2023-09-18T01:46:44;97290.47;;;16.67;100.00
61037;BME280;72210;47.076;15.430;2023-09-18T01:49:12;97293.25;;;16.65;100.00
61037;BME280;72210;47.076;15.430;2023-09-18T01:51:39;97283.72;;;16.64;100.00
61037;BME280;72210;47.076;15.430;2023-09-18T01:54:06;97276.22;;;16.60;100.00
61037;BME280;72210;47.076;15.430;2023-09-18T01:56:33;97272.88;;;16.58;100.00
61037;BME280;72210;47.076;15.430;2023-09-18T01:59:02;97275.63;;;16.56;100.00
61037;BME280;72210;47.076;15.430;2023-09-18T02:01:29;97268.03;;;16.53;100.00
61037;BME280;72210;47.076;15.430;2023-09-18T02:03:57;97268.28;;;16.50;100.00
61037;BME280;72210;47.076;15.430;2023-09-18T02:06:44;97270.19;;;16.48;100.00
61037;BME280;72210;47.076;15.430;2023-09-18T02:09:11;97267.69;;;16.46;100.00
61037;BME280;72210;47.076;15.430;2023-09-18T02:11:40;97267.56;;;16.48;100.00
61037;BME280;72210;47.076;15.430;2023-09-18T02:14:10;97265.94;;;16.47;100.00
61037;BME280;72210;47.076;15.430;2023-09-18T02:16:39;97261.06;;;16.42;100.00
61037;BME280;72210;47.076;15.430;2023-09-18T02:19:07;97259.38;;;16.41;100.00
61037;BME280;72210;47.076;15.430;2023-09-18T02:21:34;97259.38;;;16.41;100.00
61037;BME280;72210;47.076;15.430;2023-09-18T02:24:02;97247.06;;;16.42;100.00
61037;BME280;72210;47.076;15.430;2023-09-18T02:26:30;97244.69;;;16.39;100.00
61037;BME280;72210;47.076;15.430;2023-09-18T02:28:59;97246.75;;;16.35;100.00
61037;BME280;72210;47.076;15.430;2023-09-18T02:31:28;97248.69;;;16.33;100.00
61037;BME280;72210;47.076;15.430;2023-09-18T02:33:55;97249.53;;;16.33;100.00
61037;BME280;72210;47.076;15.430;2023-09-18T02:36:22;97262.09;;;16.30;100.00
61037;BME280;72210;47.076;15.430;2023-09-18T02:38:49;97253.34;;;16.29;100.00
61037;BME280;72210;47.076;15.430;2023-09-18T02:41:17;97256.97;;;16.28;100.00
61037;BME280;72210;47.076;15.430;2023-09-18T02:43:44;97251.84;;;16.27;100.00
61037;BME280;72210;47.076;15.430;2023-09-18T02:46:12;97241.47;;;16.25;100.00
61037;BME280;72210;47.076;15.430;2023-09-18T02:48:40;97242.03;;;16.29;100.00
61037;BME280;72210;47.076;15.430;2023-09-18T02:51:07;97249.22;;;16.27;100.00
61037;BME280;72210;47.076;15.430;2023-09-18T02:53:35;97236.34;;;16.24;100.00
61037;BME280;72210;47.076;15.430;2023-09-18T02:56:02;97241.13;;;16.19;100.00
61037;BME280;72210;47.076;15.430;2023-09-18T02:58:29;97232.69;;;16.15;100.00
61037;BME280;72210;47.076;15.430;2023-09-18T03:00:57;97239.75;;;16.14;100.00
61037;BME280;72210;47.076;15.430;2023-09-18T03:03:24;97240.81;;;16.12;100.00
61037;BME280;72210;47.076;15.430;2023-09-18T03:05:53;97246.91;;;16.12;100.00
61037;BME280;72210;47.076;15.430;2023-09-18T03:08:26;97251.72;;;16.07;100.00
61037;BME280;72210;47.076;15.430;2023-09-18T03:10:53;97253.41;;;16.08;100.00
61037;BME280;72210;47.076;15.430;2023-09-18T03:13:22;97250.50;;;16.11;100.00
61037;BME280;72210;47.076;15.430;2023-09-18T03:15:49;97247.41;;;16.06;100.00
61037;BME280;72210;47.076;15.430;2023-09-18T03:18:16;97244.91;;;16.05;100.00
61037;BME280;72210;47.076;15.430;2023-09-18T03:20:43;97252.09;;;16.03;100.00
61037;BME280;72210;47.076;15.430;2023-09-18T03:23:12;97248.28;;;16.07;100.00
61037;BME280;72210;47.076;15.430;2023-09-18T03:25:39;97245.38;;;16.10;100.00
61037;BME280;72210;47.076;15.430;2023-09-18T03:28:17;97233.22;;;16.09;100.00
61037;BME280;72210;47.076;15.430;2023-09-18T03:30:44;97229.75;;;16.08;100.00
61037;BME280;72210;47.076;15.430;2023-09-18T03:33:12;97231.91;;;16.03;100.00
61037;BME280;72210;47.076;15.430;2023-09-18T03:35:47;97239.91;;;16.02;100.00
61037;BME280;72210;47.076;15.430;2023-09-18T03:38:15;97238.41;;;15.99;100.00
61037;BME280;72210;47.076;15.430;2023-09-18T03:40:43;97235.31;;;15.94;100.00
61037;BME280;72210;47.076;15.430;2023-09-18T03:43:11;97231.16;;;15.91;100.00
61037;BME280;72210;47.076;15.430;2023-09-18T03:45:38;97239.31;;;15.88;100.00
61037;BME280;72210;47.076;15.430;2023-09-18T03:48:05;97234.19;;;15.87;100.00
61037;BME280;72210;47.076;15.430;2023-09-18T03:50:32;97244.81;;;15.85;100.00
61037;BME280;72210;47.076;15.430;2023-09-18T03:52:59;97239.44;;;15.87;100.00
61037;BME280;72210;47.076;15.430;2023-09-18T03:55:28;97236.44;;;15.91;100.00
61037;BME280;72210;47.076;15.430;2023-09-18T03:57:55;97233.94;;;15.90;100.00
61037;BME280;72210;47.076;15.430;2023-09-18T04:00:22;97226.19;;;15.88;100.00
61037;BME280;72210;47.076;15.430;2023-09-18T04:02:49;97228.81;;;15.88;100.00
61037;BME280;72210;47.076;15.430;2023-09-18T04:05:16;97221.06;;;15.87;100.00
61037;BME280;72210;47.076;15.430;2023-09-18T04:07:43;97220.44;;;15.83;100.00
61037;BME280;72210;47.076;15.430;2023-09-18T04:10:10;97213.69;;;15.81;100.00
61037;BME280;72210;47.076;15.430;2023-09-18T04:12:42;97205.13;;;15.78;100.00
61037;BME280;72210;47.076;15.430;2023-09-18T04:15:09;97203.91;;;15.71;100.00
61037;BME280;72210;47.076;15.430;2023-09-18T04:17:37;97201.28;;;15.71;100.00
61037;BME280;72210;47.076;15.430;2023-09-18T04:20:05;97198.09;;;15.68;100.00
61037;BME280;72210;47.076;15.430;2023-09-18T04:22:33;97205.50;;;15.62;100.00
61037;BME280;72210;47.076;15.430;2023-09-18T04:25:00;97204.69;;;15.62;100.00
61037;BME280;72210;47.076;15.430;2023-09-18T04:27:27;97212.56;;;15.62;100.00
61037;BME280;72210;47.076;15.430;2023-09-18T04:29:55;97197.25;;;15.67;100.00
61037;BME280;72210;47.076;15.430;2023-09-18T04:32:22;97194.88;;;15.64;100.00
61037;BME280;72210;47.076;15.430;2023-09-18T04:34:49;97202.88;;;15.62;100.00
61037;BME280;72210;47.076;15.430;2023-09-18T04:37:17;97203.97;;;15.60;100.00
61037;BME280;72210;47.076;15.430;2023-09-18T04:39:44;97209.09;;;15.61;100.00
61037;BME280;72210;47.076;15.430;2023-09-18T04:42:11;97214.22;;;15.63;100.00
61037;BME280;72210;47.076;15.430;2023-09-18T04:44:38;97200.13;;;15.64;100.00
61037;BME280;72210;47.076;15.430;2023-09-18T04:47:06;97192.13;;;15.66;100.00
61037;BME280;72210;47.076;15.430;2023-09-18T04:49:33;97185.34;;;15.63;100.00
61037;BME280;72210;47.076;15.430;2023-09-18T04:52:01;97187.13;;;15.62;100.00
61037;BME280;72210;47.076;15.430;2023-09-18T04:54:28;97172.22;;;15.63;100.00
61037;BME280;72210;47.076;15.430;2023-09-18T04:56:55;97177.59;;;15.61;100.00
61037;BME280;72210;47.076;15.430;2023-09-18T04:59:22;97179.72;;;15.68;100.00
61037;BME280;72210;47.076;15.430;2023-09-18T05:01:49;97180.53;;;15.68;100.00
61037;BME280;72210;47.076;15.430;2023-09-18T05:04:17;97176.59;;;15.74;100.00
61037;BME280;72210;47.076;15.430;2023-09-18T05:06:44;97177.28;;;15.76;100.00
61037;BME280;72210;47.076;15.430;2023-09-18T05:09:11;97170.00;;;15.79;100.00
61037;BME280;72210;47.076;15.430;2023-09-18T05:11:39;97174.03;;;15.84;100.00
61037;BME280;72210;47.076;15.430;2023-09-18T05:14:06;97169.88;;;15.81;100.00
61037;BME280;72210;47.076;15.430;2023-09-18T05:16:33;97181.53;;;15.88;100.00
61037;BME280;72210;47.076;15.430;2023-09-18T05:19:02;97202.03;;;15.94;100.00
61037;BME280;72210;47.076;15.430;2023-09-18T05:21:30;97186.25;;;15.94;100.00
61037;BME280;72210;47.076;15.430;2023-09-18T05:23:57;97189.19;;;16.01;100.00
61037;BME280;72210;47.076;15.430;2023-09-18T05:26:25;97185.22;;;16.07;100.00
61037;BME280;72210;47.076;15.430;2023-09-18T05:28:52;97180.53;;;16.10;100.00
61037;BME280;72210;47.076;15.430;2023-09-18T05:31:19;97189.84;;;16.14;100.00
61037;BME280;72210;47.076;15.430;2023-09-18T05:33:46;97182.50;;;16.18;100.00
61037;BME280;72210;47.076;15.430;2023-09-18T05:36:14;97174.94;;;16.25;100.00
61037;BME280;72210;47.076;15.430;2023-09-18T05:38:42;97158.50;;;16.32;100.00
61037;BME280;72210;47.076;15.430;2023-09-18T05:41:09;97167.66;;;16.38;100.00
61037;BME280;72210;47.076;15.430;2023-09-18T05:43:36;97161.06;;;16.44;100.00
61037;BME280;72210;47.076;15.430;2023-09-18T05:46:04;97163.16;;;16.50;100.00
61037;BME280;72210;47.076;15.430;2023-09-18T05:48:31;97157.19;;;16.58;100.00
61037;BME280;72210;47.076;15.430;2023-09-18T05:50:58;97163.44;;;16.66;100.00
61037;BME280;72210;47.076;15.430;2023-09-18T05:53:25;97157.25;;;16.77;100.00
61037;BME280;72210;47.076;15.430;2023-09-18T05:55:53;97148.97;;;16.92;100.00
61037;BME280;72210;47.076;15.430;2023-09-18T05:58:20;97139.88;;;17.05;100.00
61037;BME280;72210;47.076;15.430;2023-09-18T06:00:47;97143.19;;;17.17;100.00
61037;BME280;72210;47.076;15.430;2023-09-18T06:03:15;97137.09;;;17.27;100.00
61037;BME280;72210;47.076;15.430;2023-09-18T06:05:42;97128.09;;;17.39;100.00
61037;BME280;72210;47.076;15.430;2023-09-18T06:08:09;97120.72;;;17.52;100.00
61037;BME280;72210;47.076;15.430;2023-09-18T06:10:36;97117.09;;;17.73;100.00
61037;BME280;72210;47.076;15.430;2023-09-18T06:13:05;97115.94;;;17.95;100.00
61037;BME280;72210;47.076;15.430;2023-09-18T06:15:32;97116.13;;;18.11;100.00
61037;BME280;72210;47.076;15.430;2023-09-18T06:17:59;97105.97;;;18.26;100.00
61037;BME280;72210;47.076;15.430;2023-09-18T06:20:27;97103.81;;;18.40;100.00
61037;BME280;72210;47.076;15.430;2023-09-18T06:22:54;97109.19;;;18.48;100.00
61037;BME280;72210;47.076;15.430;2023-09-18T06:25:21;97113.56;;;18.57;100.00
61037;BME280;72210;47.076;15.430;2023-09-18T06:27:50;97105.72;;;18.65;100.00
61037;BME280;72210;47.076;15.430;2023-09-18T06:30:18;97105.53;;;18.77;100.00
61037;BME280;72210;47.076;15.430;2023-09-18T06:32:45;97102.84;;;18.87;100.00
61037;BME280;72210;47.076;15.430;2023-09-18T06:35:12;97103.22;;;18.92;100.00
61037;BME280;72210;47.076;15.430;2023-09-18T06:37:40;97103.28;;;19.00;100.00
61037;BME280;72210;47.076;15.430;2023-09-18T06:40:08;97095.53;;;19.16;100.00
61037;BME280;72210;47.076;15.430;2023-09-18T06:42:35;97104.34;;;19.25;100.00
61037;BME280;72210;47.076;15.430;2023-09-18T06:45:03;97109.38;;;19.36;100.00
61037;BME280;72210;47.076;15.430;2023-09-18T06:47:32;97106.34;;;19.49;100.00
61037;BME280;72210;47.076;15.430;2023-09-18T06:49:59;97091.91;;;19.62;100.00
61037;BME280;72210;47.076;15.430;2023-09-18T06:52:26;97080.41;;;19.71;100.00
61037;BME280;72210;47.076;15.430;2023-09-18T06:54:53;97076.38;;;19.85;100.00
61037;BME280;72210;47.076;15.430;2023-09-18T06:57:20;97085.88;;;20.04;100.00
61037;BME280;72210;47.076;15.430;2023-09-18T06:59:47;97094.22;;;20.17;100.00
61037;BME280;72210;47.076;15.430;2023-09-18T07:02:14;97078.06;;;20.29;100.00
61037;BME280;72210;47.076;15.430;2023-09-18T07:04:43;97067.88;;;20.42;100.00
61037;BME280;72210;47.076;15.430;2023-09-18T07:07:12;97073.81;;;20.52;100.00
61037;BME280;72210;47.076;15.430;2023-09-18T07:09:39;97064.63;;;20.65;100.00
61037;BME280;72210;47.076;15.430;2023-09-18T07:12:27;97069.97;;;20.81;100.00
61037;BME280;72210;47.076;15.430;2023-09-18T07:14:54;97064.34;;;20.84;100.00
61037;BME280;72210;47.076;15.430;2023-09-18T07:17:21;97055.25;;;20.95;100.00
61037;BME280;72210;47.076;15.430;2023-09-18T07:19:49;97061.22;;;21.13;100.00
61037;BME280;72210;47.076;15.430;2023-09-18T07:22:16;97056.91;;;21.04;100.00
61037;BME280;72210;47.076;15.430;2023-09-18T07:24:43;97053.78;;;21.01;100.00
61037;BME280;72210;47.076;15.430;2023-09-18T07:27:10;97063.19;;;21.03;100.00
61037;BME280;72210;47.076;15.430;2023-09-18T07:29:38;97075.94;;;21.08;100.00
61037;BME280;72210;47.076;15.430;2023-09-18T07:32:05;97066.69;;;21.12;100.00
61037;BME280;72210;47.076;15.430;2023-09-18T07:34:33;97064.66;;;21.22;100.00
61037;BME280;72210;47.076;15.430;2023-09-18T07:37:02;97069.63;;;21.42;100.00
61037;BME280;72210;47.076;15.430;2023-09-18T07:39:29;97068.84;;;21.49;100.00
61037;BME280;72210;47.076;15.430;2023-09-18T07:41:56;97064.66;;;21.63;100.00
61037;BME280;72210;47.076;15.430;2023-09-18T07:44:23;97070.63;;;21.74;100.00
61037;BME280;72210;47.076;15.430;2023-09-18T07:46:50;97077.34;;;21.84;100.00
61037;BME280;72210;47.076;15.430;2023-09-18T07:49:18;97073.25;;;21.82;100.00
61037;BME280;72210;47.076;15.430;2023-09-18T07:51:45;97077.91;;;21.80;100.00
61037;BME280;72210;47.076;15.430;2023-09-18T07:54:15;97083.44;;;22.01;100.00
61037;BME280;72210;47.076;15.430;2023-09-18T07:56:42;97069.78;;;22.21;100.00
61037;BME280;72210;47.076;15.430;2023-09-18T07:59:09;97063.06;;;22.50;100.00
61037;BME280;72210;47.076;15.430;2023-09-18T08:01:36;97068.59;;;22.63;100.00
61037;BME280;72210;47.076;15.430;2023-09-18T08:04:04;97063.72;;;22.75;100.00
61037;BME280;72210;47.076;15.430;2023-09-18T08:06:31;97064.91;;;22.95;100.00
61037;BME280;72210;47.076;15.430;2023-09-18T08:08:58;97069.59;;;23.17;100.00
61037;BME280;72210;47.076;15.430;2023-09-18T08:11:27;97071.50;;;23.46;100.00
61037;BME280;72210;47.076;15.430;2023-09-18T08:13:54;97072.91;;;23.72;100.00
61037;BME280;72210;47.076;15.430;2023-09-18T08:16:21;97066.72;;;23.94;100.00
61037;BME280;72210;47.076;15.430;2023-09-18T08:18:48;97067.63;;;24.16;100.00
61037;BME280;72210;47.076;15.430;2023-09-18T08:21:15;97059.59;;;24.31;99.49
61037;BME280;72210;47.076;15.430;2023-09-18T08:23:42;97067.13;;;24.43;97.41
61037;BME280;72210;47.076;15.430;2023-09-18T08:26:09;97064.34;;;24.66;95.80
61037;BME280;72210;47.076;15.430;2023-09-18T08:28:38;97060.03;;;24.65;93.65
61037;BME280;72210;47.076;15.430;2023-09-18T08:31:05;97054.66;;;24.58;94.49
61037;BME280;72210;47.076;15.430;2023-09-18T08:33:32;97044.81;;;24.59;95.13
61037;BME280;72210;47.076;15.430;2023-09-18T08:35:59;97037.78;;;24.72;94.94
61037;BME280;72210;47.076;15.430;2023-09-18T08:38:27;97039.94;;;24.84;92.94
61037;BME280;72210;47.076;15.430;2023-09-18T08:40:54;97036.72;;;24.88;91.96
61037;BME280;72210;47.076;15.430;2023-09-18T08:43:22;97041.28;;;24.73;93.62
61037;BME280;72210;47.076;15.430;2023-09-18T08:45:53;97038.69;;;24.80;94.60
61037;BME280;72210;47.076;15.430;2023-09-18T08:48:21;97027.19;;;25.01;92.42
61037;BME280;72210;47.076;15.430;2023-09-18T08:50:49;97026.97;;;25.24;92.09
61037;BME280;72210;47.076;15.430;2023-09-18T08:53:18;97024.25;;;25.39;92.95
61037;BME280;72210;47.076;15.430;2023-09-18T08:55:45;97024.84;;;25.13;96.08
61037;BME280;72210;47.076;15.430;2023-09-18T08:58:12;97024.38;;;25.09;96.54
61037;BME280;72210;47.076;15.430;2023-09-18T09:00:39;97011.25;;;25.29;95.09
61037;BME280;72210;47.076;15.430;2023-09-18T09:03:08;97009.56;;;26.26;88.03
61037;BME280;72210;47.076;15.430;2023-09-18T09:05:36;96999.97;;;27.86;77.59
61037;BME280;72210;47.076;15.430;2023-09-18T09:08:03;96992.22;;;29.50;66.27
61037;BME280;72210;47.076;15.430;2023-09-18T09:10:30;96997.25;;;30.93;56.95
61037;BME280;72210;47.076;15.430;2023-09-18T09:12:58;96995.19;;;32.26;52.74
61037;BME280;72210;47.076;15.430;2023-09-18T09:15:28;96994.09;;;33.52;47.16
61037;BME280;72210;47.076;15.430;2023-09-18T09:18:03;96982.31;;;35.01;43.09
61037;BME280;72210;47.076;15.430;2023-09-18T09:20:36;96976.31;;;36.33;40.03
61037;BME280;72210;47.076;15.430;2023-09-18T09:23:04;96975.56;;;37.61;37.29
61037;BME280;72210;47.076;15.430;2023-09-18T09:25:33;96973.47;;;37.06;36.25
61037;BME280;72210;47.076;15.430;2023-09-18T09:28:02;96977.25;;;37.26;35.58
61037;BME280;72210;47.076;15.430;2023-09-18T09:30:30;96972.91;;;37.30;35.35
61037;BME280;72210;47.076;15.430;2023-09-18T09:32:59;96969.63;;;37.48;34.52
61037;BME280;72210;47.076;15.430;2023-09-18T09:35:28;96971.22;;;37.60;33.87
61037;BME280;72210;47.076;15.430;2023-09-18T09:38:00;96973.50;;;38.18;33.38
61037;BME280;72210;47.076;15.430;2023-09-18T09:40:29;96975.22;;;38.93;32.45
61037;BME280;72210;47.076;15.430;2023-09-18T09:42:57;96970.53;;;38.09;33.13
61037;BME280;72210;47.076;15.430;2023-09-18T09:45:25;96967.22;;;37.26;34.28
61037;BME280;72210;47.076;15.430;2023-09-18T09:47:53;96973.19;;;36.82;34.82
61037;BME280;72210;47.076;15.430;2023-09-18T09:50:21;96964.31;;;35.17;37.85
61037;BME280;72210;47.076;15.430;2023-09-18T09:52:49;96959.28;;;36.53;35.82
61037;BME280;72210;47.076;15.430;2023-09-18T09:55:25;96955.50;;;37.46;33.56
61037;BME280;72210;47.076;15.430;2023-09-18T09:57:54;96956.94;;;38.09;32.58
61037;BME280;72210;47.076;15.430;2023-09-18T10:00:22;96950.03;;;36.43;34.64
61037;BME280;72210;47.076;15.430;2023-09-18T10:02:49;96960.03;;;35.21;36.50
61037;BME280;72210;47.076;15.430;2023-09-18T10:05:18;96956.63;;;34.72;38.07
61037;BME280;72210;47.076;15.430;2023-09-18T10:07:46;96943.31;;;36.56;35.26
61037;BME280;72210;47.076;15.430;2023-09-18T10:10:14;96940.25;;;37.61;33.62
61037;BME280;72210;47.076;15.430;2023-09-18T10:12:43;96935.44;;;38.97;30.82
61037;BME280;72210;47.076;15.430;2023-09-18T10:15:13;96937.69;;;39.48;30.21
61037;BME280;72210;47.076;15.430;2023-09-18T10:17:42;96928.94;;;39.95;29.15
61037;BME280;72210;47.076;15.430;2023-09-18T10:20:12;96929.88;;;39.66;29.31
61037;BME280;72210;47.076;15.430;2023-09-18T10:22:43;96935.06;;;40.11;28.93
61037;BME280;72210;47.076;15.430;2023-09-18T10:25:14;96945.09;;;39.13;29.90
61037;BME280;72210;47.076;15.430;2023-09-18T10:27:45;96931.00;;;38.77;30.51
61037;BME280;72210;47.076;15.430;2023-09-18T10:30:13;96938.44;;;39.25;30.12
61037;BME280;72210;47.076;15.430;2023-09-18T10:32:41;96933.22;;;38.25;30.96
61037;BME280;72210;47.076;15.430;2023-09-18T10:35:10;96927.84;;;36.52;33.29
61037;BME280;72210;47.076;15.430;2023-09-18T10:37:38;96922.44;;;34.87;36.24
61037;BME280;72210;47.076;15.430;2023-09-18T10:40:07;96909.84;;;34.16;37.80
61037;BME280;72210;47.076;15.430;2023-09-18T10:42:35;96899.63;;;34.78;37.67
61037;BME280;72210;47.076;15.430;2023-09-18T10:45:07;96897.63;;;35.38;36.15
61037;BME280;72210;47.076;15.430;2023-09-18T10:47:38;96891.69;;;36.15;35.00
61037;BME280;72210;47.076;15.430;2023-09-18T10:50:07;96900.69;;;36.46;33.86
61037;BME280;72210;47.076;15.430;2023-09-18T10:52:35;96897.69;;;37.15;33.16
61037;BME280;72210;47.076;15.430;2023-09-18T10:55:03;96887.41;;;36.96;33.37
61037;BME280;72210;47.076;15.430;2023-09-18T10:57:34;96890.94;;;36.51;33.93
61037;BME280;72210;47.076;15.430;2023-09-18T11:00:02;96876.47;;;35.93;35.08
61037;BME280;72210;47.076;15.430;2023-09-18T11:02:31;96880.94;;;36.87;33.66
61037;BME280;72210;47.076;15.430;2023-09-18T11:04:59;96891.88;;;37.63;32.50
61037;BME280;72210;47.076;15.430;2023-09-18T11:07:26;96877.03;;;35.32;35.34
61037;BME280;72210;47.076;15.430;2023-09-18T11:09:53;96880.66;;;35.58;35.77
61037;BME280;72210;47.076;15.430;2023-09-18T11:12:43;96881.69;;;37.29;32.14
61037;BME280;72210;47.076;15.430;2023-09-18T11:15:25;96877.25;;;39.17;30.34
61037;BME280;72210;47.076;15.430;2023-09-18T11:18:02;96877.00;;;39.67;28.96
61037;BME280;72210;47.076;15.430;2023-09-18T11:20:35;96872.94;;;38.52;30.25
61037;BME280;72210;47.076;15.430;2023-09-18T11:23:16;96870.19;;;38.13;30.63
61037;BME280;72210;47.076;15.430;2023-09-18T11:25:43;96879.25;;;37.98;30.75
61037;BME280;72210;47.076;15.430;2023-09-18T11:28:14;96876.38;;;39.27;29.25
61037;BME280;72210;47.076;15.430;2023-09-18T11:30:49;96878.78;;;39.77;29.00
61037;BME280;72210;47.076;15.430;2023-09-18T11:33:30;96868.28;;;40.46;27.78
61037;BME280;72210;47.076;15.430;2023-09-18T11:36:03;96865.47;;;40.84;27.45
61037;BME280;72210;47.076;15.430;2023-09-18T11:38:31;96867.28;;;41.50;26.65
61037;BME280;72210;47.076;15.430;2023-09-18T11:40:59;96869.31;;;41.30;26.75
61037;BME280;72210;47.076;15.430;2023-09-18T11:43:28;96860.00;;;41.31;26.59
61037;BME280;72210;47.076;15.430;2023-09-18T11:45:56;96873.84;;;41.76;26.44
61037;BME280;72210;47.076;15.430;2023-09-18T11:48:26;96861.25;;;43.25;24.74
61037;BME280;72210;47.076;15.430;2023-09-18T11:50:55;96860.66;;;43.86;23.76
61037;BME280;72210;47.076;15.430;2023-09-18T11:53:23;96846.94;;;44.56;23.58
61037;BME280;72210;47.076;15.430;2023-09-18T11:55:51;96831.59;;;44.55;22.90
61037;BME280;72210;47.076;15.430;2023-09-18T11:58:19;96834.38;;;44.46;23.29
61037;BME280;72210;47.076;15.430;2023-09-18T12:00:46;96831.66;;;41.41;25.64
61037;BME280;72210;47.076;15.430;2023-09-18T12:03:15;96843.84;;;40.03;27.38
61037;BME280;72210;47.076;15.430;2023-09-18T12:05:44;96845.94;;;40.25;27.37
61037;BME280;72210;47.076;15.430;2023-09-18T12:08:11;96846.78;;;38.91;29.21
61037;BME280;72210;47.076;15.430;2023-09-18T12:10:39;96830.97;;;37.04;31.64
61037;BME280;72210;47.076;15.430;2023-09-18T12:13:06;96842.09;;;34.88;34.96
61037;BME280;72210;47.076;15.430;2023-09-18T12:15:34;96819.22;;;33.32;38.05
61037;BME280;72210;47.076;15.430;2023-09-18T12:18:08;96811.56;;;32.51;40.05
61037;BME280;72210;47.076;15.430;2023-09-18T12:20:36;96796.72;;;31.85;42.00
61037;BME280;72210;47.076;15.430;2023-09-18T12:23:09;96796.63;;;31.40;43.98
61037;BME280;72210;47.076;15.430;2023-09-18T12:25:36;96814.44;;;30.93;45.84
61037;BME280;72210;47.076;15.430;2023-09-18T12:28:07;96809.19;;;30.51;47.51
61037;BME280;72210;47.076;15.430;2023-09-18T12:30:34;96808.19;;;30.10;49.64
61037;BME280;72210;47.076;15.430;2023-09-18T12:33:02;96797.16;;;29.39;52.94
61037;BME280;72210;47.076;15.430;2023-09-18T12:35:29;96791.78;;;29.02;55.24
61037;BME280;72210;47.076;15.430;2023-09-18T12:37:58;96792.75;;;28.89;56.89
61037;BME280;72210;47.076;15.430;2023-09-18T12:40:29;96780.34;;;28.95;57.04
61037;BME280;72210;47.076;15.430;2023-09-18T12:42:57;96773.69;;;28.97;57.01
61037;BME280;72210;47.076;15.430;2023-09-18T12:45:25;96768.63;;;28.71;57.05
61037;BME280;72210;47.076;15.430;2023-09-18T12:47:55;96778.31;;;28.46;58.41